Time;durP1;ratioP1;P1;durP2;ratioP2;P2;SDS_P1;SDS_P2;PMS_P1;PMS_P2;Temp;Humidity;BMP_temperature;BMP_pressure;BME280_temperature;BME280_humidity;BME280_pressure;Samples;Min_cycle;Max_cycle;Signal;HPM_P1;HPM_P2
2023/04/09 00:00:38;;;;;;;0.10;0.10;;;9.10;99.90;;;;;;5063902;28;20195;-79
2023/04/09 00:03:04;;;;;;;0.10;0.10;;;9.10;99.90;;;;;;5068312;28;20220;-79
2023/04/09 00:05:29;;;;;;;0.10;0.10;;;9.10;99.90;;;;;;5068879;28;20222;-79
2023/04/09 00:07:55;;;;;;;0.10;0.10;;;9.00;99.90;;;;;;5064828;28;20212;-79
2023/04/09 00:10:22;;;;;;;0.10;0.10;;;9.00;99.90;;;;;;5068249;28;20207;-79
2023/04/09 00:12:48;;;;;;;0.07;0.07;;;9.00;99.90;;;;;;5064041;28;20212;-80
2023/04/09 00:15:13;;;;;;;0.10;0.10;;;9.10;99.90;;;;;;5067570;28;20204;-80
2023/04/09 00:17:39;;;;;;;0.10;0.10;;;9.10;99.90;;;;;;5059752;28;20193;-79
2023/04/09 00:20:06;;;;;;;0.10;0.10;;;9.20;99.90;;;;;;5068501;28;20264;-80
2023/04/09 00:22:32;;;;;;;0.10;0.10;;;9.10;99.90;;;;;;5068116;28;20201;-80
2023/04/09 00:24:57;;;;;;;0.10;0.10;;;9.00;99.90;;;;;;5062023;28;20189;-80
2023/04/09 00:27:23;;;;;;;0.10;0.10;;;9.00;99.90;;;;;;5063676;28;20246;-79
2023/04/09 00:29:48;;;;;;;0.10;0.10;;;9.00;99.90;;;;;;5068436;28;20222;-80
2023/04/09 00:32:14;;;;;;;0.10;0.10;;;8.90;99.90;;;;;;5061348;28;20219;-80
2023/04/09 00:34:40;;;;;;;0.00;0.00;;;8.90;99.90;;;;;;5064263;28;20668;-79
2023/04/09 00:37:05;;;;;;;0.10;0.10;;;8.90;99.90;;;;;;5062354;28;20188;-79
2023/04/09 00:39:31;;;;;;;0.10;0.10;;;8.80;99.90;;;;;;5065593;28;20193;-80
2023/04/09 00:42:03;;;;;;;0.10;0.10;;;8.90;99.90;;;;;;5059800;28;20678;-79
2023/04/09 00:44:29;;;;;;;0.10;0.10;;;8.80;99.90;;;;;;5068741;28;20187;-79
2023/04/09 00:46:56;;;;;;;0.10;0.10;;;8.90;99.90;;;;;;5061494;28;20180;-80
2023/04/09 00:49:25;;;;;;;0.10;0.10;;;9.00;99.90;;;;;;5066883;28;20346;-79
2023/04/09 00:51:51;;;;;;;0.10;0.10;;;9.00;99.90;;;;;;5063379;28;20181;-80
2023/04/09 00:54:16;;;;;;;0.10;0.10;;;9.00;99.90;;;;;;5065008;28;20207;-80
2023/04/09 00:56:43;;;;;;;0.10;0.10;;;8.90;99.90;;;;;;5064087;28;20292;-80
2023/04/09 00:59:08;;;;;;;0.10;0.10;;;8.90;99.90;;;;;;5062904;28;20181;-80
2023/04/09 01:01:34;;;;;;;0.10;0.10;;;8.80;99.90;;;;;;5064151;28;20208;-79
2023/04/09 01:04:00;;;;;;;0.10;0.10;;;8.80;99.90;;;;;;5064703;28;20309;-80
2023/04/09 01:06:31;;;;;;;0.10;0.10;;;8.80;99.90;;;;;;5064291;28;20188;-79
2023/04/09 01:08:57;;;;;;;0.10;0.10;;;8.70;99.90;;;;;;5067193;28;20216;-80
2023/04/09 01:11:30;;;;;;;0.10;0.10;;;8.70;99.90;;;;;;5064735;28;20193;-79
2023/04/09 01:14:11;;;;;;;0.10;0.10;;;8.70;99.90;;;;;;5066340;28;20211;-79
2023/04/09 01:16:39;;;;;;;0.10;0.10;;;8.70;99.90;;;;;;5065257;28;20185;-80
2023/04/09 01:19:17;;;;;;;0.10;0.10;;;8.70;99.90;;;;;;5083227;28;20362;-79
2023/04/09 01:21:44;;;;;;;0.10;0.10;;;8.70;99.90;;;;;;5063610;28;20189;-79
2023/04/09 01:24:28;;;;;;;0.10;0.10;;;8.60;99.90;;;;;;5061646;28;20315;-79
2023/04/09 01:27:01;;;;;;;0.10;0.10;;;8.60;99.90;;;;;;5066289;28;20180;-80
2023/04/09 01:29:30;;;;;;;0.10;0.10;;;8.50;99.90;;;;;;5065004;28;20221;-79
2023/04/09 01:31:58;;;;;;;0.10;0.10;;;8.50;99.90;;;;;;5065658;28;20196;-79
2023/04/09 01:34:25;;;;;;;0.10;0.10;;;8.50;99.90;;;;;;5065682;28;20185;-79
2023/04/09 01:36:56;;;;;;;0.10;0.10;;;8.50;99.90;;;;;;5066792;28;20185;-80
2023/04/09 01:39:22;;;;;;;0.10;0.10;;;8.50;99.90;;;;;;5067160;28;20188;-80
2023/04/09 01:41:50;;;;;;;0.10;0.10;;;8.50;99.90;;;;;;5070152;28;20603;-80
2023/04/09 01:44:16;;;;;;;0.10;0.10;;;8.40;99.90;;;;;;5068717;28;20208;-79
2023/04/09 01:46:42;;;;;;;0.10;0.10;;;8.40;99.90;;;;;;5069713;28;20201;-79
2023/04/09 01:49:09;;;;;;;0.10;0.10;;;8.30;99.90;;;;;;5071628;28;20243;-78
2023/04/09 01:51:35;;;;;;;0.10;0.10;;;8.20;99.90;;;;;;5067586;28;20184;-80
2023/04/09 01:54:02;;;;;;;0.10;0.10;;;8.10;99.90;;;;;;5058167;28;20204;-79
2023/04/09 01:56:38;;;;;;;0.10;0.10;;;8.00;99.90;;;;;;5060403;28;20272;-79
2023/04/09 01:59:03;;;;;;;0.10;0.10;;;7.90;99.90;;;;;;5057476;28;20211;-79
2023/04/09 02:01:37;;;;;;;0.10;0.10;;;7.80;99.90;;;;;;5059696;28;20216;-79
2023/04/09 02:04:08;;;;;;;0.30;0.30;;;7.70;99.90;;;;;;5060959;28;20681;-79
2023/04/09 02:06:43;;;;;;;0.10;0.10;;;7.60;99.90;;;;;;5059874;28;20191;-79
2023/04/09 02:09:09;;;;;;;0.10;0.10;;;7.50;99.90;;;;;;5065201;28;20204;-79
2023/04/09 02:11:39;;;;;;;0.10;0.10;;;7.40;99.90;;;;;;5062068;28;20193;-79
2023/04/09 02:14:07;;;;;;;0.10;0.10;;;7.40;99.90;;;;;;5064688;28;20238;-81
2023/04/09 02:16:33;;;;;;;0.10;0.10;;;7.40;99.90;;;;;;5061624;28;20186;-80
2023/04/09 02:19:00;;;;;;;0.10;0.10;;;7.40;99.90;;;;;;5066622;28;20272;-80
2023/04/09 02:21:27;;;;;;;0.00;0.00;;;7.30;99.90;;;;;;5064346;28;20189;-80
2023/04/09 02:23:54;;;;;;;0.10;0.10;;;7.30;99.90;;;;;;5081279;28;20215;-80
2023/04/09 02:26:20;;;;;;;0.10;0.10;;;7.30;99.90;;;;;;5062281;28;20217;-81
2023/04/09 02:28:45;;;;;;;0.10;0.10;;;7.30;99.90;;;;;;5063912;28;22064;-79
2023/04/09 02:31:11;;;;;;;0.10;0.10;;;7.20;99.90;;;;;;5064523;28;20181;-80
2023/04/09 02:33:36;;;;;;;0.10;0.10;;;7.20;99.90;;;;;;5063621;28;20297;-80
2023/04/09 02:36:02;;;;;;;0.10;0.10;;;7.20;99.90;;;;;;5063852;28;20231;-80
2023/04/09 02:38:28;;;;;;;0.10;0.10;;;7.20;99.90;;;;;;5063841;28;20192;-80
2023/04/09 02:40:53;;;;;;;0.10;0.10;;;7.20;99.90;;;;;;5065559;28;20189;-80
2023/04/09 02:43:19;;;;;;;0.10;0.10;;;7.20;99.90;;;;;;5064102;28;20206;-80
2023/04/09 02:45:44;;;;;;;0.10;0.10;;;7.20;99.90;;;;;;5059002;28;20200;-80
2023/04/09 02:48:10;;;;;;;0.10;0.10;;;7.10;99.90;;;;;;5060786;28;20307;-80
2023/04/09 02:50:36;;;;;;;0.10;0.10;;;7.10;99.90;;;;;;5061072;28;20190;-80
2023/04/09 02:53:01;;;;;;;0.10;0.10;;;7.10;99.90;;;;;;5061863;28;20224;-80
2023/04/09 02:55:27;;;;;;;0.10;0.10;;;7.10;99.90;;;;;;5060799;28;21160;-80
2023/04/09 02:57:53;;;;;;;0.10;0.10;;;7.10;99.90;;;;;;5063574;28;20657;-80
2023/04/09 03:00:18;;;;;;;0.10;0.10;;;7.10;99.90;;;;;;5061007;28;20194;-79
2023/04/09 03:02:44;;;;;;;0.10;0.10;;;7.10;99.90;;;;;;5060469;28;20230;-80
2023/04/09 03:05:09;;;;;;;0.10;0.10;;;7.00;99.90;;;;;;5058441;28;20177;-80
2023/04/09 03:07:35;;;;;;;0.00;0.00;;;7.00;99.90;;;;;;5061431;28;20181;-80
2023/04/09 03:10:00;;;;;;;0.10;0.10;;;7.00;99.90;;;;;;5062728;28;20281;-80
2023/04/09 03:12:26;;;;;;;0.10;0.10;;;7.00;99.90;;;;;;5062940;28;20219;-80
2023/04/09 03:14:51;;;;;;;0.10;0.10;;;7.00;99.90;;;;;;5065321;28;20198;-79
2023/04/09 03:17:17;;;;;;;0.10;0.10;;;6.90;99.90;;;;;;5061808;28;20194;-80
2023/04/09 03:19:42;;;;;;;0.10;0.10;;;6.80;99.90;;;;;;5061799;28;20187;-80
2023/04/09 03:22:08;;;;;;;0.10;0.10;;;6.70;99.90;;;;;;5064499;28;20203;-80
2023/04/09 03:24:34;;;;;;;0.10;0.10;;;6.70;99.90;;;;;;5059672;28;20240;-80
2023/04/09 03:26:59;;;;;;;0.10;0.10;;;6.70;99.90;;;;;;5059753;28;20196;-82
2023/04/09 03:29:25;;;;;;;0.10;0.10;;;6.60;99.90;;;;;;5061826;28;20580;-79
2023/04/09 03:31:50;;;;;;;0.10;0.10;;;6.60;99.90;;;;;;5057953;28;20185;-80
2023/04/09 03:34:16;;;;;;;0.10;0.10;;;6.60;99.90;;;;;;5061985;28;20209;-80
2023/04/09 03:36:41;;;;;;;0.10;0.10;;;6.60;99.90;;;;;;5064231;28;20206;-80
2023/04/09 03:39:07;;;;;;;0.10;0.10;;;6.60;99.90;;;;;;5057908;28;20246;-80
2023/04/09 03:41:32;;;;;;;0.10;0.10;;;6.50;99.90;;;;;;5059906;28;20577;-80
2023/04/09 03:43:58;;;;;;;0.07;0.07;;;6.50;99.90;;;;;;5059485;28;21012;-80
2023/04/09 03:46:24;;;;;;;0.10;0.10;;;6.50;99.90;;;;;;5064145;28;20181;-80
2023/04/09 03:48:50;;;;;;;0.10;0.10;;;6.50;99.90;;;;;;5063171;28;20211;-81
2023/04/09 03:51:16;;;;;;;0.10;0.10;;;6.50;99.90;;;;;;5060744;28;20180;-80
2023/04/09 03:53:42;;;;;;;0.10;0.10;;;6.50;99.90;;;;;;5061151;28;20210;-80
2023/04/09 03:56:08;;;;;;;0.10;0.10;;;6.40;99.90;;;;;;5058866;28;20186;-80
2023/04/09 03:58:34;;;;;;;0.10;0.10;;;6.30;99.90;;;;;;5058915;28;20299;-80
2023/04/09 04:01:00;;;;;;;0.07;0.07;;;6.20;99.90;;;;;;5058098;28;20179;-80
2023/04/09 04:03:25;;;;;;;0.10;0.10;;;6.20;99.90;;;;;;5061972;28;20219;-80
2023/04/09 04:05:51;;;;;;;0.10;0.10;;;6.20;99.90;;;;;;5064114;28;20234;-80
2023/04/09 04:08:16;;;;;;;0.10;0.10;;;6.10;99.90;;;;;;5056318;28;20211;-81
2023/04/09 04:10:42;;;;;;;0.10;0.10;;;6.10;99.90;;;;;;5063850;28;20255;-80
2023/04/09 04:13:08;;;;;;;0.10;0.10;;;6.10;99.90;;;;;;5063519;28;20236;-80
2023/04/09 04:15:39;;;;;;;0.10;0.10;;;6.10;99.90;;;;;;5061956;28;21221;-80
2023/04/09 04:18:05;;;;;;;0.10;0.10;;;6.10;99.90;;;;;;5062559;28;20188;-80
2023/04/09 04:20:34;;;;;;;0.10;0.10;;;6.00;99.90;;;;;;5062939;28;20183;-81
2023/04/09 04:22:59;;;;;;;0.10;0.10;;;6.00;99.90;;;;;;5062010;28;20264;-80
2023/04/09 04:25:25;;;;;;;0.00;0.00;;;6.00;99.90;;;;;;5060399;28;20191;-80
2023/04/09 04:27:50;;;;;;;0.10;0.10;;;6.00;99.90;;;;;;5056645;28;20211;-80
2023/04/09 04:30:16;;;;;;;0.00;0.00;;;6.00;99.90;;;;;;5061516;28;20203;-81
2023/04/09 04:32:42;;;;;;;0.10;0.10;;;6.00;99.90;;;;;;5056984;28;20292;-80
2023/04/09 04:35:08;;;;;;;0.10;0.10;;;5.90;99.90;;;;;;5059229;28;20310;-80
2023/04/09 04:37:33;;;;;;;0.10;0.10;;;6.00;99.90;;;;;;5056581;28;20187;-80
2023/04/09 04:40:04;;;;;;;0.00;0.00;;;6.00;99.90;;;;;;5058671;28;20205;-81
2023/04/09 04:42:29;;;;;;;0.10;0.10;;;5.90;99.90;;;;;;5078428;28;20235;-80
2023/04/09 04:44:55;;;;;;;0.10;0.10;;;5.90;99.90;;;;;;5063015;28;20216;-80
2023/04/09 04:47:21;;;;;;;0.10;0.10;;;5.90;99.90;;;;;;5062328;28;20183;-80
2023/04/09 04:49:46;;;;;;;0.10;0.10;;;5.90;99.90;;;;;;5059235;28;20289;-80
2023/04/09 04:52:12;;;;;;;0.10;0.10;;;5.90;99.90;;;;;;5055707;28;20188;-80
2023/04/09 04:54:38;;;;;;;0.10;0.10;;;5.90;99.90;;;;;;5059805;28;21992;-80
2023/04/09 04:57:03;;;;;;;0.10;0.10;;;5.90;99.90;;;;;;5052097;28;20182;-81
2023/04/09 04:59:29;;;;;;;0.10;0.10;;;5.90;99.90;;;;;;5057246;28;20191;-82
2023/04/09 05:01:54;;;;;;;0.10;0.10;;;5.90;99.90;;;;;;5063143;28;20194;-81
2023/04/09 05:04:20;;;;;;;0.10;0.10;;;5.90;99.90;;;;;;5058545;28;20189;-81
2023/04/09 05:06:45;;;;;;;0.10;0.10;;;5.90;99.90;;;;;;5061746;28;20463;-81
2023/04/09 05:09:11;;;;;;;0.10;0.10;;;5.90;99.90;;;;;;5056606;28;20202;-79
2023/04/09 05:11:37;;;;;;;0.10;0.10;;;5.90;99.90;;;;;;5065136;28;20182;-81
2023/04/09 05:14:03;;;;;;;0.10;0.10;;;5.90;99.90;;;;;;5067494;28;20222;-80
2023/04/09 05:16:29;;;;;;;0.10;0.10;;;5.80;99.90;;;;;;5064250;28;20182;-80
2023/04/09 05:18:54;;;;;;;0.20;0.20;;;5.80;99.90;;;;;;5068690;28;20188;-80
2023/04/09 05:21:20;;;;;;;0.10;0.10;;;5.80;99.90;;;;;;5063345;28;20770;-80
2023/04/09 05:23:45;;;;;;;0.10;0.10;;;5.80;99.90;;;;;;5068764;28;20292;-80
2023/04/09 05:26:11;;;;;;;0.10;0.10;;;5.80;99.90;;;;;;5066791;28;20196;-80
2023/04/09 05:28:37;;;;;;;0.10;0.10;;;5.90;99.90;;;;;;5065667;28;20209;-80
2023/04/09 05:31:02;;;;;;;0.10;0.10;;;6.00;99.90;;;;;;5069425;28;20266;-80
2023/04/09 05:33:28;;;;;;;0.00;0.00;;;6.10;99.90;;;;;;5060070;28;20696;-80
2023/04/09 05:35:53;;;;;;;0.10;0.10;;;6.10;99.90;;;;;;5066075;28;20296;-81
2023/04/09 05:38:19;;;;;;;0.10;0.10;;;6.20;99.90;;;;;;5066419;28;20652;-80
2023/04/09 05:40:44;;;;;;;0.10;0.10;;;6.30;99.90;;;;;;5067182;28;20723;-80
2023/04/09 05:43:10;;;;;;;2.67;2.57;;;6.40;99.90;;;;;;5066053;28;21271;-81
2023/04/09 05:45:36;;;;;;;0.10;0.10;;;6.40;99.90;;;;;;5066601;28;20650;-81
2023/04/09 05:48:02;;;;;;;0.10;0.10;;;6.50;99.90;;;;;;5066249;28;20231;-81
2023/04/09 05:50:27;;;;;;;0.10;0.10;;;6.50;99.90;;;;;;5064062;28;20220;-81
2023/04/09 05:52:53;;;;;;;0.10;0.10;;;6.60;99.90;;;;;;5060761;28;20200;-80
2023/04/09 05:55:19;;;;;;;0.10;0.10;;;6.70;99.90;;;;;;5063731;28;20184;-80
2023/04/09 05:57:44;;;;;;;0.10;0.10;;;6.70;99.90;;;;;;5064031;28;20193;-80
2023/04/09 06:00:11;;;;;;;0.00;0.00;;;6.90;99.90;;;;;;5068623;28;20193;-80
2023/04/09 06:02:36;;;;;;;0.10;0.10;;;7.00;99.90;;;;;;5069387;28;20274;-80
2023/04/09 06:05:02;;;;;;;0.10;0.10;;;7.30;99.90;;;;;;5067576;28;20178;-79
2023/04/09 06:07:28;;;;;;;0.10;0.10;;;7.40;99.90;;;;;;5065242;28;20189;-79
2023/04/09 06:09:55;;;;;;;0.10;0.10;;;7.50;99.90;;;;;;5061532;28;20214;-80
2023/04/09 06:12:20;;;;;;;0.10;0.10;;;7.60;99.90;;;;;;5065562;28;20205;-80
2023/04/09 06:14:47;;;;;;;0.10;0.10;;;7.60;99.90;;;;;;5066415;28;20192;-80
2023/04/09 06:17:13;;;;;;;0.00;0.00;;;7.70;99.90;;;;;;5065130;28;20230;-80
2023/04/09 06:19:39;;;;;;;0.10;0.10;;;7.80;99.90;;;;;;5062301;28;20223;-80
2023/04/09 06:22:04;;;;;;;0.10;0.10;;;7.90;99.90;;;;;;5059699;28;20734;-80
2023/04/09 06:24:31;;;;;;;0.00;0.00;;;8.00;99.90;;;;;;5081033;28;20224;-81
2023/04/09 06:26:57;;;;;;;0.10;0.10;;;8.10;99.90;;;;;;5062063;28;20180;-80
2023/04/09 06:29:22;;;;;;;0.10;0.10;;;8.30;99.90;;;;;;5059529;28;20208;-79
2023/04/09 06:31:48;;;;;;;0.10;0.10;;;8.20;99.90;;;;;;5061855;28;20303;-80
2023/04/09 06:34:14;;;;;;;0.00;0.00;;;8.40;99.90;;;;;;5060792;28;20199;-80
2023/04/09 06:36:40;;;;;;;0.00;0.00;;;8.50;99.90;;;;;;5061999;28;20219;-81
2023/04/09 06:39:06;;;;;;;0.10;0.10;;;8.60;99.90;;;;;;5058987;28;20230;-80
2023/04/09 06:41:32;;;;;;;0.10;0.10;;;8.90;99.90;;;;;;5056858;28;20702;-81
2023/04/09 06:43:58;;;;;;;0.10;0.10;;;9.20;99.90;;;;;;5061964;28;20204;-81
2023/04/09 06:46:23;;;;;;;0.00;0.00;;;9.10;99.90;;;;;;5060227;28;20335;-81
2023/04/09 06:48:49;;;;;;;0.10;0.10;;;9.50;99.90;;;;;;5063749;28;20220;-81
2023/04/09 06:51:15;;;;;;;0.00;0.00;;;9.50;99.90;;;;;;5063127;28;20191;-80
2023/04/09 06:53:41;;;;;;;0.10;0.10;;;9.10;99.90;;;;;;5060896;28;20236;-81
2023/04/09 06:56:06;;;;;;;0.10;0.10;;;9.10;99.90;;;;;;5065939;28;20185;-80
2023/04/09 06:58:32;;;;;;;0.10;0.10;;;9.10;99.90;;;;;;5068509;28;20188;-81
2023/04/09 07:00:58;;;;;;;0.10;0.10;;;9.30;99.90;;;;;;5061590;28;20196;-81
2023/04/09 07:03:24;;;;;;;0.10;0.10;;;9.50;99.90;;;;;;5068529;28;20217;-80
2023/04/09 07:05:50;;;;;;;0.10;0.10;;;9.70;99.90;;;;;;5069567;28;20191;-80
2023/04/09 07:08:16;;;;;;;0.10;0.10;;;9.70;99.90;;;;;;5064244;28;20292;-81
2023/04/09 07:10:42;;;;;;;0.10;0.10;;;10.00;99.90;;;;;;5058754;28;20288;-81
2023/04/09 07:13:07;;;;;;;0.10;0.10;;;9.70;99.90;;;;;;5062068;28;20205;-81
2023/04/09 07:15:33;;;;;;;0.10;0.10;;;9.70;99.90;;;;;;5068107;28;20189;-80
2023/04/09 07:17:59;;;;;;;0.10;0.10;;;10.00;99.90;;;;;;5062270;28;20193;-83
2023/04/09 07:20:24;;;;;;;0.03;0.03;;;9.70;99.90;;;;;;5065027;28;20649;-83
2023/04/09 07:22:50;;;;;;;0.10;0.10;;;9.60;99.90;;;;;;5060694;28;20258;-83
2023/04/09 07:25:16;;;;;;;0.10;0.10;;;9.80;99.90;;;;;;5057617;28;20189;-83
2023/04/09 07:27:42;;;;;;;0.10;0.10;;;9.90;99.90;;;;;;5058762;28;21009;-80
2023/04/09 07:30:09;;;;;;;0.10;0.10;;;10.00;99.90;;;;;;5055642;28;20185;-80
2023/04/09 07:32:35;;;;;;;0.10;0.10;;;10.10;99.90;;;;;;5079400;28;20197;-80
2023/04/09 07:35:03;;;;;;;0.10;0.10;;;10.30;99.90;;;;;;5063313;28;20215;-80
2023/04/09 07:37:29;;;;;;;0.10;0.10;;;10.10;99.90;;;;;;5060299;28;20185;-81
2023/04/09 07:39:55;;;;;;;0.10;0.10;;;10.40;99.90;;;;;;5065930;28;20192;-81
2023/04/09 07:42:21;;;;;;;0.10;0.10;;;10.40;99.90;;;;;;5058421;28;20204;-81
2023/04/09 07:44:46;;;;;;;0.10;0.10;;;10.40;99.90;;;;;;5063032;28;20192;-81
2023/04/09 07:47:12;;;;;;;0.10;0.10;;;10.30;99.90;;;;;;5061411;28;20310;-81
2023/04/09 07:49:37;;;;;;;0.10;0.10;;;10.60;99.90;;;;;;5057605;28;20230;-82
2023/04/09 07:52:04;;;;;;;0.10;0.10;;;10.70;99.90;;;;;;5058498;28;20177;-81
2023/04/09 07:54:30;;;;;;;0.10;0.10;;;11.10;99.90;;;;;;5060999;28;20192;-82
2023/04/09 07:56:56;;;;;;;0.10;0.10;;;11.30;99.90;;;;;;5064972;28;20268;-81
2023/04/09 07:59:22;;;;;;;0.10;0.10;;;11.10;99.90;;;;;;5059956;28;20183;-81
2023/04/09 08:01:48;;;;;;;0.10;0.10;;;11.60;99.90;;;;;;5059032;28;20269;-82
2023/04/09 08:04:14;;;;;;;1.13;1.13;;;11.70;99.90;;;;;;5064293;28;20291;-80
2023/04/09 08:06:40;;;;;;;0.10;0.10;;;11.20;99.90;;;;;;5063471;28;20204;-81
2023/04/09 08:09:06;;;;;;;0.10;0.10;;;11.50;99.90;;;;;;5064580;28;20218;-81
2023/04/09 08:11:31;;;;;;;0.10;0.10;;;11.50;99.90;;;;;;5057591;28;20824;-81
2023/04/09 08:13:57;;;;;;;0.10;0.10;;;11.70;99.90;;;;;;5059021;28;20224;-81
2023/04/09 08:16:23;;;;;;;0.10;0.10;;;12.10;99.90;;;;;;5063255;28;20248;-81
2023/04/09 08:18:52;;;;;;;0.10;0.10;;;12.10;99.90;;;;;;5060931;28;20658;-81
2023/04/09 08:21:18;;;;;;;0.10;0.10;;;12.50;99.90;;;;;;5052811;28;20220;-81
2023/04/09 08:23:43;;;;;;;0.10;0.10;;;12.00;99.90;;;;;;5061915;28;20236;-81
2023/04/09 08:26:09;;;;;;;0.10;0.10;;;12.00;99.90;;;;;;5061444;28;20264;-81
2023/04/09 08:28:35;;;;;;;0.10;0.10;;;12.30;99.90;;;;;;5058201;28;20202;-81
2023/04/09 08:31:00;;;;;;;0.10;0.10;;;12.40;99.90;;;;;;5061413;28;20317;-81
2023/04/09 08:33:26;;;;;;;0.10;0.10;;;12.60;99.90;;;;;;5056731;28;20215;-82
2023/04/09 08:35:52;;;;;;;0.40;0.40;;;12.70;99.90;;;;;;5060435;28;20224;-82
2023/04/09 08:38:20;;;;;;;0.10;0.10;;;12.90;99.90;;;;;;5062648;28;20212;-82
2023/04/09 08:40:46;;;;;;;0.10;0.10;;;11.60;99.90;;;;;;5060034;28;20562;-81
2023/04/09 08:43:17;;;;;;;0.10;0.10;;;11.90;99.90;;;;;;5058515;28;20207;-80
2023/04/09 08:45:43;;;;;;;0.10;0.10;;;12.10;99.90;;;;;;5056032;28;20185;-81
2023/04/09 08:48:11;;;;;;;0.10;0.10;;;11.60;99.90;;;;;;5058515;28;20213;-80
2023/04/09 08:50:37;;;;;;;0.50;0.50;;;11.90;99.90;;;;;;5054351;28;20269;-80
2023/04/09 08:53:04;;;;;;;0.10;0.10;;;11.20;99.90;;;;;;5059746;28;20739;-80
2023/04/09 08:55:33;;;;;;;0.10;0.10;;;11.00;99.90;;;;;;5061255;28;20179;-80
2023/04/09 08:57:59;;;;;;;0.30;0.30;;;11.50;99.90;;;;;;5060989;28;20177;-80
2023/04/09 09:00:26;;;;;;;0.10;0.10;;;12.20;99.90;;;;;;5057510;28;20247;-80
2023/04/09 09:03:20;;;;;;;0.10;0.10;;;12.60;99.90;;;;;;5054102;28;20254;-80
2023/04/09 09:05:46;;;;;;;0.10;0.10;;;12.20;99.90;;;;;;5044756;28;20258;-80
2023/04/09 09:08:23;;;;;;;0.10;0.10;;;13.00;99.90;;;;;;5064062;28;20216;-80
2023/04/09 09:10:49;;;;;;;0.10;0.10;;;13.50;99.90;;;;;;5062871;28;20235;-80
2023/04/09 09:13:21;;;;;;;0.10;0.10;;;13.30;99.90;;;;;;5058345;28;21276;-80
2023/04/09 09:15:54;;;;;;;0.10;0.10;;;13.00;99.90;;;;;;5056209;28;20190;-80
2023/04/09 09:18:20;;;;;;;0.10;0.10;;;13.20;99.90;;;;;;5057330;28;20291;-80
2023/04/09 09:20:46;;;;;;;0.10;0.10;;;12.70;99.90;;;;;;5056256;28;20220;-80
2023/04/09 09:23:12;;;;;;;0.10;0.10;;;12.40;99.90;;;;;;5059773;28;20231;-80
2023/04/09 09:25:39;;;;;;;0.10;0.10;;;12.70;99.90;;;;;;5064440;28;20804;-80
2023/04/09 09:28:11;;;;;;;0.10;0.10;;;13.00;99.90;;;;;;5058520;28;20212;-80
2023/04/09 09:30:38;;;;;;;0.10;0.10;;;13.40;99.90;;;;;;5059615;28;20619;-80
2023/04/09 09:33:11;;;;;;;0.10;0.10;;;13.50;99.90;;;;;;5055792;28;20201;-80
2023/04/09 09:35:50;;;;;;;0.10;0.10;;;13.60;99.90;;;;;;5060482;28;20650;-80
2023/04/09 09:38:17;;;;;;;0.10;0.10;;;14.00;99.90;;;;;;5060510;28;20223;-80
2023/04/09 09:40:43;;;;;;;0.07;0.07;;;14.10;99.90;;;;;;5052377;28;20356;-80
2023/04/09 09:43:09;;;;;;;0.10;0.10;;;14.50;99.90;;;;;;5061703;28;20243;-81
2023/04/09 09:45:37;;;;;;;0.10;0.10;;;14.60;99.90;;;;;;5060706;28;20192;-80
2023/04/09 09:48:03;;;;;;;0.10;0.10;;;14.70;99.90;;;;;;5055575;28;20219;-80
2023/04/09 09:50:31;;;;;;;0.10;0.10;;;14.40;99.90;;;;;;5056228;28;20284;-80
2023/04/09 09:53:02;;;;;;;0.10;0.10;;;14.30;99.90;;;;;;5057572;28;20206;-80
2023/04/09 09:55:31;;;;;;;0.10;0.10;;;14.50;99.90;;;;;;5057613;28;20266;-80
2023/04/09 09:58:00;;;;;;;0.10;0.10;;;14.90;99.90;;;;;;5062953;28;20458;-80
2023/04/09 10:00:27;;;;;;;0.10;0.10;;;15.00;99.90;;;;;;5063674;28;20645;-81
2023/04/09 10:02:57;;;;;;;0.10;0.10;;;15.30;99.90;;;;;;5065362;28;20236;-80
2023/04/09 10:05:25;;;;;;;0.10;0.10;;;14.60;99.90;;;;;;5061197;28;20215;-80
2023/04/09 10:07:53;;;;;;;0.10;0.10;;;14.80;99.90;;;;;;5061382;28;20220;-80
2023/04/09 10:10:20;;;;;;;0.10;0.10;;;14.80;99.90;;;;;;5056950;28;20270;-81
2023/04/09 10:12:46;;;;;;;0.10;0.10;;;14.20;99.90;;;;;;5059852;28;20759;-81
2023/04/09 10:15:12;;;;;;;0.10;0.10;;;13.70;99.90;;;;;;5063154;28;20180;-80
2023/04/09 10:17:37;;;;;;;0.10;0.10;;;13.20;99.90;;;;;;5080756;28;20192;-80
2023/04/09 10:20:22;;;;;;;0.07;0.07;;;13.30;99.90;;;;;;5065027;28;20774;-79
2023/04/09 10:22:50;;;;;;;0.10;0.10;;;13.90;99.90;;;;;;5064982;28;20665;-80
2023/04/09 10:25:16;;;;;;;0.10;0.10;;;14.60;99.90;;;;;;5059935;28;20211;-80
2023/04/09 10:27:47;;;;;;;0.10;0.10;;;15.00;99.90;;;;;;5058852;28;20238;-79
2023/04/09 10:30:33;;;;;;;0.10;0.10;;;14.40;99.90;;;;;;5059903;28;20176;-80
2023/04/09 10:33:09;;;;;;;0.10;0.10;;;14.20;99.90;;;;;;5063536;28;20204;-80
2023/04/09 10:35:35;;;;;;;0.10;0.10;;;14.40;99.90;;;;;;5080486;28;20189;-80
2023/04/09 10:38:00;;;;;;;0.10;0.10;;;14.60;99.90;;;;;;5064177;28;20202;-80
2023/04/09 10:40:27;;;;;;;0.57;0.57;;;13.30;99.90;;;;;;5059692;28;20219;-80
2023/04/09 10:42:55;;;;;;;0.10;0.10;;;13.30;99.90;;;;;;5059626;28;20300;-81
2023/04/09 10:45:20;;;;;;;0.10;0.10;;;13.50;99.90;;;;;;5063229;28;20192;-80
2023/04/09 10:47:50;;;;;;;0.10;0.10;;;14.30;99.90;;;;;;5063006;28;20318;-80
2023/04/09 10:50:17;;;;;;;0.10;0.10;;;13.70;99.90;;;;;;5059045;28;20183;-80
2023/04/09 10:52:43;;;;;;;0.10;0.10;;;13.40;99.90;;;;;;5063547;28;20208;-80
2023/04/09 10:55:09;;;;;;;0.10;0.10;;;14.20;99.90;;;;;;5061815;28;20267;-80
2023/04/09 10:57:35;;;;;;;0.10;0.10;;;15.00;99.90;;;;;;5064427;28;20183;-80
2023/04/09 11:00:01;;;;;;;0.10;0.10;;;15.40;99.90;;;;;;5055790;28;20198;-80
2023/04/09 11:02:38;;;;;;;0.10;0.10;;;15.00;99.90;;;;;;5079405;28;21075;-80
2023/04/09 11:05:16;;;;;;;0.10;0.10;;;15.00;99.90;;;;;;5063971;28;20191;-80
2023/04/09 11:07:57;;;;;;;0.10;0.10;;;15.30;99.90;;;;;;5064444;28;20177;-80
2023/04/09 11:10:22;;;;;;;0.10;0.10;;;14.70;99.90;;;;;;5065317;28;20185;-80
2023/04/09 11:12:48;;;;;;;0.10;0.10;;;15.20;99.90;;;;;;5060425;28;20700;-80
2023/04/09 11:15:18;;;;;;;0.10;0.10;;;15.60;99.90;;;;;;5063393;28;20270;-80
2023/04/09 11:17:45;;;;;;;0.10;0.10;;;15.70;99.90;;;;;;5061976;28;20235;-80
2023/04/09 11:20:12;;;;;;;0.10;0.10;;;15.60;99.90;;;;;;5060941;28;20204;-80
2023/04/09 11:22:38;;;;;;;0.10;0.10;;;15.00;99.90;;;;;;5057119;28;20522;-80
2023/04/09 11:25:04;;;;;;;0.00;0.00;;;14.70;99.90;;;;;;5063280;28;20189;-81
2023/04/09 11:27:29;;;;;;;0.10;0.10;;;14.10;99.90;;;;;;5059071;28;20697;-80
2023/04/09 11:29:55;;;;;;;0.10;0.10;;;14.30;99.90;;;;;;5059896;28;20220;-80
2023/04/09 11:32:21;;;;;;;0.10;0.10;;;14.60;99.90;;;;;;5059059;28;20279;-80
2023/04/09 11:34:46;;;;;;;0.10;0.10;;;14.30;99.90;;;;;;5061238;28;20192;-80
2023/04/09 11:37:16;;;;;;;0.10;0.10;;;14.20;99.90;;;;;;5060472;28;20279;-81
2023/04/09 11:39:45;;;;;;;0.30;0.30;;;13.90;99.90;;;;;;5064106;28;20860;-81
2023/04/09 11:42:14;;;;;;;0.10;0.10;;;14.40;99.90;;;;;;5058058;28;20192;-82
2023/04/09 11:44:40;;;;;;;0.10;0.10;;;14.70;99.90;;;;;;5060750;28;20187;-80
2023/04/09 11:47:08;;;;;;;0.10;0.10;;;14.90;99.90;;;;;;5055235;28;20718;-81
2023/04/09 11:49:34;;;;;;;0.10;0.10;;;15.20;99.90;;;;;;5063856;28;20200;-81
2023/04/09 11:52:02;;;;;;;0.63;0.63;;;15.60;99.90;;;;;;5064926;28;20182;-81
2023/04/09 11:54:34;;;;;;;0.10;0.10;;;15.30;99.90;;;;;;5064865;28;20188;-81
2023/04/09 11:57:02;;;;;;;0.10;0.10;;;15.10;99.90;;;;;;5063836;28;20198;-81
2023/04/09 11:59:27;;;;;;;0.10;0.10;;;14.80;99.90;;;;;;5065748;28;20189;-81
2023/04/09 12:01:53;;;;;;;0.10;0.10;;;14.30;99.90;;;;;;5062946;28;20672;-80
2023/04/09 12:04:21;;;;;;;0.10;0.10;;;14.60;99.90;;;;;;5065160;28;20685;-81
2023/04/09 12:06:47;;;;;;;0.10;0.10;;;15.10;99.90;;;;;;5067160;28;20201;-81
2023/04/09 12:09:13;;;;;;;0.10;0.10;;;15.40;99.90;;;;;;5064099;28;20213;-81
2023/04/09 12:11:42;;;;;;;0.10;0.10;;;14.90;99.90;;;;;;5065288;28;20188;-81
2023/04/09 12:14:13;;;;;;;0.10;0.10;;;14.80;99.90;;;;;;5063830;28;20200;-81
2023/04/09 12:16:43;;;;;;;0.10;0.10;;;15.10;99.90;;;;;;5064515;28;20221;-81
2023/04/09 12:19:10;;;;;;;0.10;0.10;;;15.10;99.90;;;;;;5060733;28;20639;-81
2023/04/09 12:21:48;;;;;;;0.10;0.10;;;15.50;99.90;;;;;;5063866;28;20185;-81
2023/04/09 12:24:15;;;;;;;0.10;0.10;;;15.60;99.90;;;;;;5063418;28;20296;-81
2023/04/09 12:26:41;;;;;;;0.10;0.10;;;15.10;99.90;;;;;;5060870;28;20195;-81
2023/04/09 12:29:07;;;;;;;0.10;0.10;;;15.60;99.90;;;;;;5063152;28;20213;-81
2023/04/09 12:31:32;;;;;;;0.10;0.10;;;16.30;99.90;;;;;;5056463;28;20173;-81
2023/04/09 12:33:58;;;;;;;0.10;0.10;;;16.40;99.90;;;;;;5061671;28;20543;-82
2023/04/09 12:36:23;;;;;;;0.10;0.10;;;15.40;99.90;;;;;;5059335;28;20733;-81
2023/04/09 12:38:49;;;;;;;0.10;0.10;;;14.90;99.90;;;;;;5064673;28;20192;-80
2023/04/09 12:41:15;;;;;;;2.93;2.73;;;15.80;99.90;;;;;;5060344;28;20689;-81
2023/04/09 12:43:43;;;;;;;0.10;0.10;;;16.60;99.90;;;;;;5061768;28;20205;-81
2023/04/09 12:46:09;;;;;;;0.00;0.00;;;16.20;99.90;;;;;;5062819;28;20185;-81
2023/04/09 12:48:35;;;;;;;0.00;0.00;;;15.20;99.90;;;;;;5059937;28;20213;-81
2023/04/09 12:51:01;;;;;;;0.10;0.10;;;15.50;99.90;;;;;;5063581;28;20212;-80